La rose des vents
Donnes mto: Semaine 09/05/22 - 15/05/22 (S 19)
Date Horaire Temp. E. Hum. E. P.atmo. Pluie Vent 1mn Direction Ensoleilleme Ev.Tr. Solaire P. de rose Temp au vent Rafales
09/05/2022 00:00 15,4 C 73 % 1019,3 hPa 0,0 mm 0,0 km/h (0 Bft) N 0,00 h 0,025 mm 0 W/m 10,7 C 15,4 C 0,0 km/h (0 Bft)
09/05/2022 01:00 15,3 C 72 % 1019,3 hPa 0,0 mm 0,0 km/h (0 Bft) N 0,00 h 0,025 mm 0 W/m 10,3 C 15,3 C 0,0 km/h (0 Bft)
09/05/2022 02:00 15,0 C 72 % 1019,2 hPa 0,0 mm 0,0 km/h (0 Bft) N 0,00 h 0,025 mm 0 W/m 10,0 C 15,0 C 0,0 km/h (0 Bft)
09/05/2022 03:00 14,4 C 74 % 1019,2 hPa 0,0 mm 0,0 km/h (0 Bft) N 0,00 h 0,025 mm 0 W/m 9,7 C 14,4 C 0,0 km/h (0 Bft)
09/05/2022 04:00 13,9 C 75 % 1019,7 hPa 0,0 mm 0,0 km/h (0 Bft) N 0,00 h 0,025 mm 0 W/m 9,5 C 13,9 C 0,0 km/h (0 Bft)
09/05/2022 05:00 14,2 C 73 % 1019,7 hPa 0,0 mm 0,0 km/h (0 Bft) N 0,00 h 0,025 mm 0 W/m 9,4 C 14,2 C 0,4 km/h (0 Bft)
09/05/2022 06:00 14,7 C 71 % 1019,8 hPa 0,0 mm 1,2 km/h (1 Bft) NO 0,05 h 0,000 mm 21 W/m 9,5 C 14,7 C 4,1 km/h (1 Bft)
09/05/2022 07:00 15,8 C 70 % 1020,2 hPa 0,0 mm 0,5 km/h (0 Bft) NO 0,00 h 0,025 mm 82 W/m 10,3 C 15,8 C 2,0 km/h (1 Bft)
09/05/2022 08:00 17,6 C 69 % 1020,7 hPa 0,0 mm 0,0 km/h (0 Bft) N 0,12 h 0,051 mm 108 W/m 11,7 C 17,6 C 0,0 km/h (0 Bft)
09/05/2022 09:00 20,8 C 60 % 1021,0 hPa 0,0 mm 0,2 km/h (0 Bft) NO 1,00 h 0,076 mm 453 W/m 12,7 C 20,8 C 1,0 km/h (0 Bft)
09/05/2022 10:00 23,9 C 51 % 1020,9 hPa 0,0 mm 2,2 km/h (1 Bft) S 1,00 h 0,279 mm 603 W/m 13,3 C 23,9 C 5,1 km/h (1 Bft)
09/05/2022 11:00 25,0 C 48 % 1021,0 hPa 0,0 mm 4,5 km/h (1 Bft) S 1,00 h 0,381 mm 723 W/m 13,3 C 25,0 C 10,1 km/h (2 Bft)
09/05/2022 12:00 25,3 C 46 % 1020,9 hPa 0,0 mm 7,3 km/h (2 Bft) S-SE 1,00 h 0,483 mm 870 W/m 12,9 C 25,3 C 14,2 km/h (3 Bft)
09/05/2022 13:00 25,5 C 45 % 1021,1 hPa 0,0 mm 4,1 km/h (1 Bft) E-SE 0,95 h 0,610 mm 860 W/m 12,6 C 25,5 C 10,0 km/h (2 Bft)
09/05/2022 14:00 24,0 C 48 % 1021,2 hPa 0,0 mm 2,7 km/h (1 Bft) E 0,37 h 0,559 mm 496 W/m 12,1 C 24,0 C 6,4 km/h (2 Bft)
09/05/2022 15:00 25,0 C 44 % 1021,1 hPa 0,0 mm 2,2 km/h (1 Bft) E 0,87 h 0,356 mm 649 W/m 11,9 C 25,0 C 6,8 km/h (2 Bft)
09/05/2022 16:00 25,0 C 44 % 1020,7 hPa 0,0 mm 2,4 km/h (1 Bft) S-SE 0,67 h 0,432 mm 513 W/m 11,8 C 25,0 C 6,4 km/h (2 Bft)
09/05/2022 17:00 23,9 C 48 % 1020,7 hPa 0,0 mm 2,6 km/h (1 Bft) S-SO 0,37 h 0,330 mm 299 W/m 12,3 C 23,9 C 5,9 km/h (2 Bft)
09/05/2022 18:00 23,9 C 49 % 1020,5 hPa 0,0 mm 3,5 km/h (1 Bft) S-SO 0,98 h 0,203 mm 334 W/m 12,6 C 23,9 C 8,3 km/h (2 Bft)
09/05/2022 19:00 22,4 C 52 % 1020,5 hPa 0,0 mm 1,0 km/h (0 Bft) S-SO 0,18 h 0,229 mm 82 W/m 12,1 C 22,4 C 2,4 km/h (1 Bft)
09/05/2022 20:00 20,7 C 57 % 1020,7 hPa 0,0 mm 0,0 km/h (0 Bft) N 0,00 h 0,076 mm 16 W/m 11,7 C 20,7 C 0,0 km/h (0 Bft)
09/05/2022 21:00 19,0 C 62 % 1021,0 hPa 0,0 mm 0,0 km/h (0 Bft) N 0,00 h 0,025 mm 0 W/m 11,5 C 19,0 C 0,0 km/h (0 Bft)
09/05/2022 22:00 17,8 C 68 % 1021,4 hPa 0,0 mm 0,0 km/h (0 Bft) N 0,00 h 0,000 mm 0 W/m 11,7 C 17,8 C 0,0 km/h (0 Bft)
09/05/2022 23:00 17,1 C 70 % 1021,6 hPa 0,0 mm 0,0 km/h (0 Bft) N 0,00 h 0,025 mm 0 W/m 11,6 C 17,1 C 0,0 km/h (0 Bft)
10/05/2022 00:00 16,5 C 72 % 1021,5 hPa 0,0 mm 0,0 km/h (0 Bft) N 0,00 h 0,025 mm 0 W/m 11,4 C 16,5 C 0,0 km/h (0 Bft)
10/05/2022 01:00 16,3 C 71 % 1021,3 hPa 0,0 mm 0,0 km/h (0 Bft) N 0,00 h 0,025 mm 0 W/m 11,1 C 16,3 C 0,5 km/h (0 Bft)
10/05/2022 02:00 16,1 C 71 % 1020,9 hPa 0,0 mm 0,0 km/h (0 Bft) O-NO 0,00 h 0,025 mm 0 W/m 10,8 C 16,1 C 0,4 km/h (0 Bft)
10/05/2022 03:00 15,9 C 71 % 1020,7 hPa 0,0 mm 0,0 km/h (0 Bft) N 0,00 h 0,025 mm 0 W/m 10,6 C 15,9 C 0,4 km/h (0 Bft)
10/05/2022 04:00 15,8 C 69 % 1020,7 hPa 0,0 mm 0,0 km/h (0 Bft) N 0,00 h 0,025 mm 0 W/m 10,2 C 15,8 C 0,2 km/h (0 Bft)
10/05/2022 05:00 15,6 C 69 % 1020,5 hPa 0,0 mm 0,3 km/h (0 Bft) O-NO 0,00 h 0,025 mm 0 W/m 9,9 C 15,6 C 1,3 km/h (1 Bft)
10/05/2022 06:00 16,0 C 67 % 1020,6 hPa 0,0 mm 0,1 km/h (0 Bft) NO 0,00 h 0,000 mm 13 W/m 9,9 C 16,0 C 1,4 km/h (1 Bft)
10/05/2022 07:00 16,5 C 67 % 1021,0 hPa 0,0 mm 0,0 km/h (0 Bft) NO 0,00 h 0,025 mm 32 W/m 10,4 C 16,5 C 0,1 km/h (0 Bft)
10/05/2022 08:00 18,0 C 66 % 1021,3 hPa 0,0 mm 0,0 km/h (0 Bft) N 0,13 h 0,025 mm 89 W/m 11,5 C 18,0 C 0,0 km/h (0 Bft)
10/05/2022 09:00 22,2 C 58 % 1021,6 hPa 0,0 mm 0,0 km/h (0 Bft) N 1,00 h 0,051 mm 459 W/m 13,5 C 22,2 C 0,0 km/h (0 Bft)
10/05/2022 10:00 25,5 C 46 % 1021,6 hPa 0,0 mm 3,6 km/h (1 Bft) S 1,00 h 0,279 mm 611 W/m 13,2 C 25,5 C 7,4 km/h (2 Bft)
10/05/2022 11:00 26,3 C 43 % 1021,6 hPa 0,0 mm 4,5 km/h (1 Bft) S 1,00 h 0,432 mm 727 W/m 12,7 C 26,3 C 9,5 km/h (2 Bft)
10/05/2022 12:00 26,4 C 41 % 1021,6 hPa 0,0 mm 8,0 km/h (2 Bft) S 1,00 h 0,508 mm 803 W/m 12,0 C 26,4 C 15,1 km/h (3 Bft)
10/05/2022 13:00 26,3 C 42 % 1021,2 hPa 0,0 mm 8,0 km/h (2 Bft) S 1,00 h 0,584 mm 827 W/m 12,2 C 26,3 C 14,9 km/h (3 Bft)
10/05/2022 14:00 26,5 C 41 % 1020,9 hPa 0,0 mm 6,4 km/h (2 Bft) S 1,00 h 0,610 mm 793 W/m 12,0 C 26,5 C 13,0 km/h (3 Bft)
10/05/2022 15:00 26,7 C 40 % 1020,5 hPa 0,0 mm 7,1 km/h (2 Bft) S 1,00 h 0,559 mm 717 W/m 12,1 C 26,7 C 13,6 km/h (3 Bft)
10/05/2022 16:00 26,2 C 40 % 1020,0 hPa 0,0 mm 7,9 km/h (2 Bft) S 0,97 h 0,533 mm 595 W/m 11,7 C 26,2 C 14,1 km/h (3 Bft)
10/05/2022 17:00 25,5 C 41 % 1019,6 hPa 0,0 mm 4,2 km/h (1 Bft) S 1,00 h 0,457 mm 421 W/m 11,3 C 25,5 C 8,6 km/h (2 Bft)
10/05/2022 18:00 24,3 C 51 % 1019,5 hPa 0,0 mm 0,7 km/h (0 Bft) S-SO 0,85 h 0,305 mm 233 W/m 13,3 C 24,3 C 2,7 km/h (1 Bft)
10/05/2022 19:00 21,1 C 69 % 1019,4 hPa 0,0 mm 0,0 km/h (0 Bft) N 0,15 h 0,152 mm 95 W/m 15,2 C 21,1 C 0,0 km/h (0 Bft)
10/05/2022 20:00 19,8 C 72 % 1019,1 hPa 0,0 mm 0,0 km/h (0 Bft) N 0,03 h 0,051 mm 17 W/m 14,6 C 19,8 C 0,0 km/h (0 Bft)
10/05/2022 21:00 18,4 C 74 % 1018,9 hPa 0,0 mm 0,0 km/h (0 Bft) N 0,00 h 0,025 mm 0 W/m 13,7 C 18,4 C 0,0 km/h (0 Bft)
10/05/2022 22:00 18,1 C 68 % 1019,1 hPa 0,0 mm 0,0 km/h (0 Bft) N 0,00 h 0,000 mm 0 W/m 12,1 C 18,1 C 0,0 km/h (0 Bft)
10/05/2022 23:00 18,4 C 66 % 1018,9 hPa 0,0 mm 0,0 km/h (0 Bft) N 0,00 h 0,025 mm 0 W/m 12,0 C 18,4 C 0,0 km/h (0 Bft)
11/05/2022 00:00 18,2 C 68 % 1018,9 hPa 0,0 mm 0,0 km/h (0 Bft) N 0,00 h 0,025 mm 0 W/m 12,2 C 18,2 C 0,0 km/h (0 Bft)
11/05/2022 01:00 17,7 C 71 % 1018,7 hPa 0,0 mm 0,0 km/h (0 Bft) N 0,00 h 0,025 mm 0 W/m 12,3 C 17,7 C 0,0 km/h (0 Bft)
11/05/2022 02:00 17,1 C 72 % 1018,4 hPa 0,0 mm 0,0 km/h (0 Bft) N 0,00 h 0,025 mm 0 W/m 12,0 C 17,1 C 0,0 km/h (0 Bft)
11/05/2022 03:00 16,3 C 80 % 1018,4 hPa 0,0 mm 0,0 km/h (0 Bft) N 0,00 h 0,025 mm 0 W/m 12,8 C 16,3 C 0,0 km/h (0 Bft)
11/05/2022 04:00 15,2 C 87 % 1018,7 hPa 0,0 mm 0,0 km/h (0 Bft) N 0,00 h 0,025 mm 0 W/m 13,0 C 15,2 C 0,0 km/h (0 Bft)
11/05/2022 05:00 14,7 C 91 % 1019,0 hPa 0,0 mm 0,0 km/h (0 Bft) N 0,00 h 0,000 mm 0 W/m 13,3 C 14,7 C 0,0 km/h (0 Bft)
11/05/2022 06:00 14,6 C 94 % 1019,4 hPa 0,0 mm 0,0 km/h (0 Bft) N 0,03 h 0,000 mm 16 W/m 13,6 C 14,6 C 0,0 km/h (0 Bft)
11/05/2022 07:00 14,6 C 94 % 1020,1 hPa 0,0 mm 0,0 km/h (0 Bft) N 0,00 h 0,000 mm 38 W/m 13,6 C 14,6 C 0,0 km/h (0 Bft)
11/05/2022 08:00 16,3 C 91 % 1020,8 hPa 0,0 mm 0,0 km/h (0 Bft) N 0,08 h 0,025 mm 104 W/m 14,9 C 16,3 C 0,0 km/h (0 Bft)
11/05/2022 09:00 20,0 C 78 % 1020,9 hPa 0,0 mm 2,3 km/h (1 Bft) S 1,00 h 0,051 mm 429 W/m 16,0 C 20,0 C 4,9 km/h (1 Bft)
11/05/2022 10:00 22,0 C 69 % 1021,0 hPa 0,0 mm 4,3 km/h (1 Bft) S 1,00 h 0,254 mm 581 W/m 16,0 C 22,0 C 8,8 km/h (2 Bft)
11/05/2022 11:00 22,2 C 70 % 1021,2 hPa 0,0 mm 3,0 km/h (1 Bft) E 1,00 h 0,356 mm 715 W/m 16,5 C 22,2 C 7,8 km/h (2 Bft)
11/05/2022 12:00 22,7 C 69 % 1021,4 hPa 0,0 mm 3,6 km/h (1 Bft) E 1,00 h 0,432 mm 790 W/m 16,7 C 22,7 C 8,0 km/h (2 Bft)
11/05/2022 13:00 22,8 C 69 % 1021,3 hPa 0,0 mm 3,5 km/h (1 Bft) E 1,00 h 0,483 mm 822 W/m 16,7 C 22,8 C 8,5 km/h (2 Bft)
11/05/2022 14:00 23,3 C 65 % 1021,0 hPa 0,0 mm 3,5 km/h (1 Bft) E 1,00 h 0,508 mm 790 W/m 16,4 C 23,3 C 8,1 km/h (2 Bft)
11/05/2022 15:00 23,2 C 66 % 1020,9 hPa 0,0 mm 3,7 km/h (1 Bft) E 1,00 h 0,508 mm 708 W/m 16,6 C 23,2 C 8,3 km/h (2 Bft)
11/05/2022 16:00 22,7 C 69 % 1020,7 hPa 0,0 mm 3,2 km/h (1 Bft) E 1,00 h 0,457 mm 595 W/m 16,7 C 22,7 C 7,8 km/h (2 Bft)
11/05/2022 17:00 21,8 C 73 % 1020,5 hPa 0,0 mm 2,5 km/h (1 Bft) E 1,00 h 0,381 mm 446 W/m 16,7 C 21,8 C 6,4 km/h (2 Bft)
11/05/2022 18:00 20,9 C 76 % 1020,3 hPa 0,0 mm 0,6 km/h (0 Bft) E 1,00 h 0,279 mm 287 W/m 16,5 C 20,9 C 1,8 km/h (1 Bft)
11/05/2022 19:00 19,9 C 77 % 1020,2 hPa 0,0 mm 0,0 km/h (0 Bft) N 0,73 h 0,178 mm 120 W/m 15,8 C 19,9 C 0,0 km/h (0 Bft)
11/05/2022 20:00 18,3 C 81 % 1020,2 hPa 0,0 mm 0,0 km/h (0 Bft) N 0,00 h 0,076 mm 15 W/m 15,0 C 18,3 C 0,0 km/h (0 Bft)
11/05/2022 21:00 16,9 C 85 % 1020,5 hPa 0,0 mm 0,0 km/h (0 Bft) N 0,00 h 0,000 mm 0 W/m 14,5 C 16,9 C 0,0 km/h (0 Bft)
11/05/2022 22:00 16,0 C 89 % 1020,8 hPa 0,0 mm 0,0 km/h (0 Bft) N 0,00 h 0,000 mm 0 W/m 14,2 C 16,0 C 0,0 km/h (0 Bft)
11/05/2022 23:00 15,5 C 91 % 1021,1 hPa 0,0 mm 0,0 km/h (0 Bft) N 0,00 h 0,000 mm 0 W/m 14,1 C 15,5 C 0,0 km/h (0 Bft)
12/05/2022 00:00 15,3 C 93 % 1020,9 hPa 0,0 mm 0,0 km/h (0 Bft) N 0,00 h 0,000 mm 0 W/m 14,1 C 15,3 C 0,0 km/h (0 Bft)
12/05/2022 01:00 14,9 C 93 % 1020,7 hPa 0,0 mm 0,0 km/h (0 Bft) N 0,00 h 0,000 mm 0 W/m 13,8 C 14,9 C 0,0 km/h (0 Bft)
12/05/2022 02:00 14,4 C 92 % 1020,4 hPa 0,0 mm 0,0 km/h (0 Bft) N 0,00 h 0,000 mm 0 W/m 13,1 C 14,4 C 0,0 km/h (0 Bft)
12/05/2022 03:00 14,4 C 92 % 1020,3 hPa 0,0 mm 0,0 km/h (0 Bft) N 0,00 h 0,000 mm 0 W/m 13,1 C 14,4 C 0,0 km/h (0 Bft)
12/05/2022 04:00 14,3 C 93 % 1020,6 hPa 0,0 mm 0,0 km/h (0 Bft) N 0,00 h 0,000 mm 0 W/m 13,1 C 14,3 C 0,0 km/h (0 Bft)
12/05/2022 05:00 14,3 C 95 % 1020,8 hPa 0,0 mm 0,0 km/h (0 Bft) N 0,00 h 0,000 mm 0 W/m 13,5 C 14,3 C 0,0 km/h (0 Bft)
12/05/2022 06:00 13,9 C 95 % 1021,1 hPa 0,0 mm 0,0 km/h (0 Bft) N 0,03 h 0,000 mm 14 W/m 13,2 C 13,9 C 0,0 km/h (0 Bft)
12/05/2022 07:00 14,3 C 97 % 1021,6 hPa 0,2 mm 0,0 km/h (0 Bft) N 0,00 h 0,000 mm 37 W/m 13,8 C 14,3 C 0,0 km/h (0 Bft)
12/05/2022 08:00 15,4 C 98 % 1021,9 hPa 0,0 mm 0,0 km/h (0 Bft) N 0,13 h 0,025 mm 115 W/m 15,1 C 15,4 C 0,0 km/h (0 Bft)
12/05/2022 09:00 18,2 C 89 % 1022,1 hPa 0,0 mm 0,3 km/h (0 Bft) E 1,00 h 0,051 mm 426 W/m 16,3 C 18,2 C 0,9 km/h (0 Bft)
12/05/2022 10:00 21,4 C 74 % 1022,1 hPa 0,0 mm 2,0 km/h (1 Bft) E 1,00 h 0,229 mm 616 W/m 16,5 C 21,4 C 5,4 km/h (1 Bft)
12/05/2022 11:00 22,3 C 70 % 1022,2 hPa 0,0 mm 4,0 km/h (1 Bft) E 1,00 h 0,356 mm 736 W/m 16,5 C 22,3 C 9,0 km/h (2 Bft)
12/05/2022 12:00 22,2 C 70 % 1022,5 hPa 0,0 mm 4,2 km/h (1 Bft) E 1,00 h 0,457 mm 807 W/m 16,3 C 22,2 C 9,7 km/h (2 Bft)
12/05/2022 13:00 22,8 C 67 % 1022,2 hPa 0,0 mm 3,1 km/h (1 Bft) E 1,00 h 0,508 mm 820 W/m 16,2 C 22,8 C 7,7 km/h (2 Bft)
12/05/2022 14:00 22,5 C 64 % 1021,9 hPa 0,0 mm 3,4 km/h (1 Bft) E 1,00 h 0,508 mm 794 W/m 15,3 C 22,5 C 7,9 km/h (2 Bft)
12/05/2022 15:00 23,3 C 67 % 1021,3 hPa 0,0 mm 2,7 km/h (1 Bft) E-SE 1,00 h 0,483 mm 718 W/m 16,9 C 23,3 C 7,0 km/h (2 Bft)
12/05/2022 16:00 23,2 C 66 % 1020,7 hPa 0,0 mm 2,7 km/h (1 Bft) E 1,00 h 0,457 mm 598 W/m 16,6 C 23,2 C 7,0 km/h (2 Bft)
12/05/2022 17:00 23,0 C 67 % 1020,7 hPa 0,0 mm 0,6 km/h (0 Bft) E 1,00 h 0,381 mm 448 W/m 16,6 C 23,0 C 2,5 km/h (1 Bft)
12/05/2022 18:00 21,7 C 72 % 1020,6 hPa 0,0 mm 0,3 km/h (0 Bft) E 1,00 h 0,279 mm 283 W/m 16,3 C 21,7 C 1,8 km/h (1 Bft)
12/05/2022 19:00 19,8 C 78 % 1020,3 hPa 0,0 mm 0,0 km/h (0 Bft) E 0,33 h 0,178 mm 105 W/m 15,8 C 19,8 C 0,2 km/h (0 Bft)
12/05/2022 20:00 17,8 C 84 % 1020,6 hPa 0,0 mm 0,0 km/h (0 Bft) N 0,00 h 0,076 mm 16 W/m 15,0 C 17,8 C 0,0 km/h (0 Bft)
12/05/2022 21:00 16,4 C 88 % 1020,7 hPa 0,0 mm 0,0 km/h (0 Bft) N 0,00 h 0,000 mm 0 W/m 14,3 C 16,4 C 0,0 km/h (0 Bft)
12/05/2022 22:00 15,7 C 90 % 1020,8 hPa 0,0 mm 0,0 km/h (0 Bft) N 0,00 h 0,000 mm 0 W/m 14,0 C 15,7 C 0,0 km/h (0 Bft)
12/05/2022 23:00 15,1 C 91 % 1020,9 hPa 0,0 mm 0,0 km/h (0 Bft) N 0,00 h 0,000 mm 0 W/m 13,7 C 15,1 C 0,0 km/h (0 Bft)
13/05/2022 00:00 14,8 C 93 % 1020,9 hPa 0,0 mm 0,0 km/h (0 Bft) N 0,00 h 0,000 mm 0 W/m 13,8 C 14,8 C 0,0 km/h (0 Bft)
13/05/2022 01:00 14,7 C 95 % 1020,7 hPa 0,0 mm 0,0 km/h (0 Bft) N 0,00 h 0,000 mm 0 W/m 13,8 C 14,7 C 0,0 km/h (0 Bft)
13/05/2022 02:00 14,5 C 95 % 1020,4 hPa 0,0 mm 0,0 km/h (0 Bft) N 0,00 h 0,000 mm 0 W/m 13,7 C 14,5 C 0,0 km/h (0 Bft)
13/05/2022 03:00 14,3 C 96 % 1020,0 hPa 0,0 mm 0,0 km/h (0 Bft) N 0,00 h 0,000 mm 0 W/m 13,7 C 14,3 C 0,0 km/h (0 Bft)
13/05/2022 04:00 14,1 C 96 % 1019,7 hPa 0,0 mm 0,0 km/h (0 Bft) N 0,00 h 0,000 mm 0 W/m 13,5 C 14,1 C 0,0 km/h (0 Bft)
13/05/2022 05:00 13,8 C 97 % 1019,7 hPa 0,0 mm 0,0 km/h (0 Bft) N 0,00 h 0,000 mm 0 W/m 13,3 C 13,8 C 0,0 km/h (0 Bft)
13/05/2022 06:00 13,7 C 97 % 1019,9 hPa 0,0 mm 0,0 km/h (0 Bft) N 0,00 h 0,000 mm 21 W/m 13,2 C 13,7 C 0,0 km/h (0 Bft)
13/05/2022 07:00 14,5 C 98 % 1020,4 hPa 0,0 mm 0,0 km/h (0 Bft) N 0,00 h 0,000 mm 84 W/m 14,1 C 14,5 C 0,0 km/h (0 Bft)
13/05/2022 08:00 15,7 C 98 % 1020,6 hPa 0,0 mm 0,0 km/h (0 Bft) N 0,02 h 0,051 mm 140 W/m 15,4 C 15,7 C 0,0 km/h (0 Bft)
13/05/2022 09:00 16,9 C 94 % 1020,8 hPa 0,2 mm 0,0 km/h (0 Bft) N 0,03 h 0,076 mm 201 W/m 15,9 C 16,9 C 0,0 km/h (0 Bft)
13/05/2022 10:00 19,0 C 84 % 1020,8 hPa 0,0 mm 0,3 km/h (0 Bft) S-SE 0,10 h 0,102 mm 255 W/m 16,2 C 19,0 C 1,4 km/h (1 Bft)
13/05/2022 11:00 20,7 C 77 % 1020,7 hPa 0,0 mm 2,0 km/h (1 Bft) E 0,62 h 0,152 mm 616 W/m 16,4 C 20,7 C 6,1 km/h (2 Bft)
13/05/2022 12:00 22,1 C 71 % 1020,6 hPa 0,0 mm 4,2 km/h (1 Bft) E-SE 1,00 h 0,381 mm 818 W/m 16,6 C 22,1 C 10,2 km/h (2 Bft)
13/05/2022 13:00 22,1 C 70 % 1020,4 hPa 0,0 mm 4,8 km/h (1 Bft) E 1,00 h 0,508 mm 818 W/m 16,4 C 22,1 C 11,1 km/h (2 Bft)
13/05/2022 14:00 22,0 C 70 % 1020,1 hPa 0,0 mm 3,8 km/h (1 Bft) E 1,00 h 0,508 mm 787 W/m 16,3 C 22,0 C 8,9 km/h (2 Bft)
13/05/2022 15:00 22,4 C 68 % 1019,5 hPa 0,0 mm 3,0 km/h (1 Bft) E 1,00 h 0,483 mm 687 W/m 16,2 C 22,4 C 7,6 km/h (2 Bft)
13/05/2022 16:00 22,5 C 68 % 1019,0 hPa 0,0 mm 2,1 km/h (1 Bft) E 0,98 h 0,432 mm 526 W/m 16,3 C 22,5 C 6,0 km/h (2 Bft)
13/05/2022 17:00 20,9 C 71 % 1018,8 hPa 0,0 mm 1,3 km/h (1 Bft) E 0,68 h 0,330 mm 328 W/m 15,4 C 20,9 C 4,1 km/h (1 Bft)
13/05/2022 18:00 20,5 C 73 % 1018,7 hPa 0,0 mm 0,5 km/h (0 Bft) E 0,90 h 0,203 mm 285 W/m 15,5 C 20,5 C 2,3 km/h (1 Bft)
13/05/2022 19:00 19,3 C 74 % 1018,5 hPa 0,0 mm 0,0 km/h (0 Bft) E 0,47 h 0,178 mm 119 W/m 14,5 C 19,3 C 0,2 km/h (0 Bft)
13/05/2022 20:00 18,1 C 77 % 1018,2 hPa 0,0 mm 0,0 km/h (0 Bft) N 0,00 h 0,076 mm 27 W/m 14,1 C 18,1 C 0,0 km/h (0 Bft)
13/05/2022 21:00 16,5 C 82 % 1018,6 hPa 0,0 mm 0,0 km/h (0 Bft) N 0,00 h 0,025 mm 0 W/m 13,3 C 16,5 C 0,0 km/h (0 Bft)
13/05/2022 22:00 15,3 C 85 % 1018,7 hPa 0,0 mm 0,0 km/h (0 Bft) N 0,00 h 0,000 mm 0 W/m 12,8 C 15,3 C 0,0 km/h (0 Bft)
13/05/2022 23:00 14,5 C 88 % 1018,7 hPa 0,0 mm 0,0 km/h (0 Bft) N 0,00 h 0,025 mm 0 W/m 12,5 C 14,5 C 0,0 km/h (0 Bft)
14/05/2022 00:00 14,3 C 90 % 1018,6 hPa 0,0 mm 0,0 km/h (0 Bft) N 0,00 h 0,000 mm 0 W/m 12,7 C 14,3 C 0,0 km/h (0 Bft)
14/05/2022 01:00 14,3 C 90 % 1018,6 hPa 0,0 mm 0,0 km/h (0 Bft) N 0,00 h 0,000 mm 0 W/m 12,7 C 14,3 C 0,0 km/h (0 Bft)
14/05/2022 02:00 14,3 C 93 % 1018,3 hPa 0,0 mm 0,0 km/h (0 Bft) N 0,00 h 0,000 mm 0 W/m 13,1 C 14,3 C 0,0 km/h (0 Bft)
14/05/2022 03:00 14,0 C 93 % 1018,3 hPa 0,0 mm 0,0 km/h (0 Bft) N 0,00 h 0,000 mm 0 W/m 12,8 C 14,0 C 0,0 km/h (0 Bft)
14/05/2022 04:00 13,8 C 94 % 1018,2 hPa 0,0 mm 0,0 km/h (0 Bft) N 0,00 h 0,000 mm 0 W/m 12,7 C 13,8 C 0,0 km/h (0 Bft)
14/05/2022 05:00 13,6 C 93 % 1018,1 hPa 0,0 mm 0,0 km/h (0 Bft) N 0,00 h 0,000 mm 0 W/m 12,5 C 13,6 C 0,0 km/h (0 Bft)
14/05/2022 06:00 13,4 C 94 % 1018,1 hPa 0,0 mm 0,0 km/h (0 Bft) N 0,00 h 0,000 mm 13 W/m 12,4 C 13,4 C 0,0 km/h (0 Bft)
14/05/2022 07:00 13,9 C 94 % 1018,6 hPa 0,0 mm 0,0 km/h (0 Bft) N 0,00 h 0,000 mm 37 W/m 13,0 C 13,9 C 0,0 km/h (0 Bft)
14/05/2022 08:00 16,1 C 91 % 1018,9 hPa 0,0 mm 0,6 km/h (0 Bft) E 0,10 h 0,025 mm 114 W/m 14,7 C 16,1 C 1,9 km/h (1 Bft)
14/05/2022 09:00 18,4 C 85 % 1019,3 hPa 0,0 mm 0,8 km/h (0 Bft) E 0,03 h 0,076 mm 202 W/m 15,8 C 18,4 C 4,2 km/h (1 Bft)
14/05/2022 10:00 18,8 C 84 % 1019,5 hPa 0,0 mm 1,6 km/h (1 Bft) E-SE 0,02 h 0,102 mm 251 W/m 16,0 C 18,8 C 5,3 km/h (1 Bft)
14/05/2022 11:00 19,6 C 82 % 1019,6 hPa 0,0 mm 2,5 km/h (1 Bft) E-SE 0,47 h 0,152 mm 533 W/m 16,4 C 19,6 C 6,8 km/h (2 Bft)
14/05/2022 12:00 21,2 C 75 % 1019,7 hPa 0,0 mm 2,7 km/h (1 Bft) E 0,37 h 0,305 mm 534 W/m 16,6 C 21,2 C 7,0 km/h (2 Bft)
14/05/2022 13:00 22,1 C 72 % 1019,6 hPa 0,0 mm 3,1 km/h (1 Bft) E 0,97 h 0,356 mm 825 W/m 16,8 C 22,1 C 8,2 km/h (2 Bft)
14/05/2022 14:00 22,3 C 70 % 1019,1 hPa 0,0 mm 3,9 km/h (1 Bft) E 1,00 h 0,508 mm 790 W/m 16,5 C 22,3 C 9,3 km/h (2 Bft)
14/05/2022 15:00 22,5 C 69 % 1018,8 hPa 0,0 mm 3,5 km/h (1 Bft) E 0,93 h 0,483 mm 746 W/m 16,6 C 22,5 C 8,4 km/h (2 Bft)
14/05/2022 16:00 20,5 C 74 % 1018,6 hPa 0,0 mm 1,1 km/h (1 Bft) E 0,00 h 0,457 mm 214 W/m 15,7 C 20,5 C 3,2 km/h (1 Bft)
14/05/2022 17:00 19,1 C 79 % 1018,5 hPa 0,0 mm 0,2 km/h (0 Bft) E 0,00 h 0,127 mm 183 W/m 15,4 C 19,1 C 0,9 km/h (0 Bft)
14/05/2022 18:00 19,7 C 78 % 1018,2 hPa 0,0 mm 0,1 km/h (0 Bft) E 0,73 h 0,102 mm 244 W/m 15,8 C 19,7 C 0,6 km/h (0 Bft)
14/05/2022 19:00 19,5 C 79 % 1017,8 hPa 0,0 mm 0,0 km/h (0 Bft) N 0,15 h 0,152 mm 93 W/m 15,6 C 19,5 C 0,0 km/h (0 Bft)
14/05/2022 20:00 17,9 C 83 % 1017,9 hPa 0,0 mm 0,0 km/h (0 Bft) N 0,00 h 0,051 mm 20 W/m 15,1 C 17,9 C 0,0 km/h (0 Bft)
14/05/2022 21:00 16,6 C 87 % 1018,2 hPa 0,0 mm 0,0 km/h (0 Bft) N 0,00 h 0,000 mm 0 W/m 14,5 C 16,6 C 0,0 km/h (0 Bft)
14/05/2022 22:00 15,9 C 90 % 1018,9 hPa 0,0 mm 0,0 km/h (0 Bft) N 0,00 h 0,000 mm 0 W/m 14,3 C 15,9 C 0,0 km/h (0 Bft)
14/05/2022 23:00 15,5 C 92 % 1019,1 hPa 0,0 mm 0,0 km/h (0 Bft) N 0,00 h 0,000 mm 0 W/m 14,2 C 15,5 C 0,0 km/h (0 Bft)
15/05/2022 00:00 15,1 C 93 % 1019,1 hPa 0,0 mm 0,0 km/h (0 Bft) N 0,00 h 0,000 mm 0 W/m 14,0 C 15,1 C 0,0 km/h (0 Bft)
15/05/2022 01:00 14,7 C 94 % 1019,0 hPa 0,0 mm 0,0 km/h (0 Bft) N 0,00 h 0,000 mm 0 W/m 13,8 C 14,7 C 0,0 km/h (0 Bft)
15/05/2022 02:00 14,6 C 96 % 1018,5 hPa 0,0 mm 0,0 km/h (0 Bft) N 0,00 h 0,000 mm 0 W/m 13,9 C 14,6 C 0,0 km/h (0 Bft)
15/05/2022 03:00 14,5 C 96 % 1018,1 hPa 0,0 mm 0,0 km/h (0 Bft) N 0,00 h 0,000 mm 0 W/m 13,9 C 14,5 C 0,0 km/h (0 Bft)
15/05/2022 04:00 14,4 C 97 % 1018,1 hPa 0,0 mm 0,0 km/h (0 Bft) N 0,00 h 0,000 mm 0 W/m 14,0 C 14,4 C 0,0 km/h (0 Bft)
15/05/2022 05:00 14,2 C 97 % 1017,9 hPa 0,0 mm 0,0 km/h (0 Bft) N 0,00 h 0,000 mm 0 W/m 13,8 C 14,2 C 0,0 km/h (0 Bft)
15/05/2022 06:00 14,0 C 97 % 1018,1 hPa 0,0 mm 0,0 km/h (0 Bft) N 0,03 h 0,000 mm 21 W/m 13,5 C 14,0 C 0,0 km/h (0 Bft)
15/05/2022 07:00 14,8 C 98 % 1018,6 hPa 0,2 mm 0,0 km/h (0 Bft) N 0,00 h 0,000 mm 71 W/m 14,5 C 14,8 C 0,0 km/h (0 Bft)
15/05/2022 08:00 16,0 C 98 % 1018,8 hPa 0,0 mm 0,0 km/h (0 Bft) N 0,12 h 0,025 mm 151 W/m 15,7 C 16,0 C 0,0 km/h (0 Bft)
15/05/2022 09:00 18,6 C 88 % 1019,0 hPa 0,0 mm 0,0 km/h (0 Bft) E 0,98 h 0,076 mm 466 W/m 16,5 C 18,6 C 0,3 km/h (0 Bft)
15/05/2022 10:00 22,2 C 71 % 1018,9 hPa 0,0 mm 1,0 km/h (0 Bft) E 1,00 h 0,254 mm 650 W/m 16,7 C 22,2 C 3,1 km/h (1 Bft)
15/05/2022 11:00 23,7 C 63 % 1019,1 hPa 0,0 mm 3,3 km/h (1 Bft) E-SE 1,00 h 0,381 mm 792 W/m 16,3 C 23,7 C 8,3 km/h (2 Bft)
15/05/2022 12:00 23,9 C 64 % 1019,4 hPa 0,0 mm 4,3 km/h (1 Bft) E 0,97 h 0,508 mm 689 W/m 16,6 C 23,9 C 9,2 km/h (2 Bft)
15/05/2022 13:00 22,8 C 70 % 1019,2 hPa 0,0 mm 3,1 km/h (1 Bft) E 0,87 h 0,432 mm 619 W/m 17,0 C 22,8 C 6,9 km/h (2 Bft)
15/05/2022 14:00 23,6 C 68 % 1018,6 hPa 0,0 mm 3,3 km/h (1 Bft) E 1,00 h 0,381 mm 793 W/m 17,4 C 23,6 C 7,8 km/h (2 Bft)
15/05/2022 15:00 24,1 C 63 % 1018,4 hPa 0,0 mm 3,6 km/h (1 Bft) E 1,00 h 0,508 mm 714 W/m 16,4 C 24,1 C 7,9 km/h (2 Bft)
15/05/2022 16:00 24,5 C 58 % 1018,1 hPa 0,0 mm 3,1 km/h (1 Bft) E-SE 1,00 h 0,457 mm 600 W/m 15,6 C 24,5 C 7,4 km/h (2 Bft)
15/05/2022 17:00 23,3 C 67 % 1018,1 hPa 0,0 mm 3,6 km/h (1 Bft) E 1,00 h 0,406 mm 450 W/m 16,7 C 23,3 C 7,7 km/h (2 Bft)
15/05/2022 18:00 21,6 C 72 % 1018,2 hPa 0,0 mm 2,1 km/h (1 Bft) E 0,60 h 0,305 mm 206 W/m 16,2 C 21,6 C 4,5 km/h (1 Bft)
15/05/2022 19:00 19,8 C 77 % 1018,1 hPa 0,0 mm 0,0 km/h (0 Bft) N 0,00 h 0,127 mm 59 W/m 15,7 C 19,8 C 0,0 km/h (0 Bft)
15/05/2022 20:00 18,6 C 82 % 1018,1 hPa 0,0 mm 0,0 km/h (0 Bft) N 0,05 h 0,025 mm 21 W/m 15,5 C 18,6 C 0,0 km/h (0 Bft)
15/05/2022 21:00 17,4 C 87 % 1018,2 hPa 0,0 mm 0,0 km/h (0 Bft) N 0,00 h 0,025 mm 0 W/m 15,2 C 17,4 C 0,0 km/h (0 Bft)
15/05/2022 22:00 16,7 C 90 % 1018,7 hPa 0,0 mm 0,0 km/h (0 Bft) N 0,00 h 0,000 mm 0 W/m 15,1 C 16,7 C 0,0 km/h (0 Bft)
15/05/2022 23:00 16,2 C 93 % 1019,0 hPa 0,0 mm 0,0 km/h (0 Bft) N 0,00 h 0,000 mm 0 W/m 15,0 C 16,2 C 0,0 km/h (0 Bft)
Min-Date _ 14/05/22 10/05/22 14/05/22 - 09/05/22 - - - - 09/05/22 14/05/22 09/05/22
_ Min-Heure 06:11 12:38 19:15 - 00:00 - - - - 04:31 06:11 00:00
Minimum _ 13,4 C 39 % 1017,7 hPa - 0,0 km/h (0 Bft) - - - - 9,2 C 13,4 C 0,0 km/h (0 Bft)
Max-Date _ 10/05/22 12/05/22 12/05/22 12/05/22 10/05/22 - 09/05/22 09/05/22 14/05/22 15/05/22 10/05/22 10/05/22
_ Max-Heure 15:07 08:01 12:15 07:31 13:07 - 06:24 13:00 11:59 14:50 15:07 12:32
Maximum _ 27,0 C 98 % 1022,6 hPa 0,2 mm 16,1 km/h
S (3 Bft)
- 0,02 h 0,610 mm 1002 W/m 17,9 C 27,0 C 25,7 km/h
S (4 Bft)
Moyenne _ 18,8 C 76 % 1019,9 hPa #0,6 mm 1,2 km/h (1 Bft) E #62:13 h #27,498 mm 403 W/m 14,0 C 18,8 C 2,9 km/h (1 Bft)
Roquefort les pins